This is the latest recevied weather packets stored in our database for station/object WE1C. If no packets are shown the sender has not sent any weather packets the latest 1 day(s).
| Time | Temp. | Humidity | Pressure | Rain* | Wind** | Luminosity | Snow |
|---|---|---|---|---|---|---|---|
| 1777984846 | 17.22° C | 61% | 1039.2 hPa | 0 mm | 1.34 m/s, 133° | 405 W/m² | - |
| 1777984542 | 16.67° C | 64% | 1039 hPa | 0 mm | 0.45 m/s, 191° | 396 W/m² | - |
| 1777984239 | 16.11° C | 64% | 1039.2 hPa | 0 mm | 0.89 m/s, 207° | 377 W/m² | - |
| 1777983936 | 16.67° C | 63% | 1039.5 hPa | 0 mm | 1.34 m/s, 186° | 130 W/m² | - |
| 1777983632 | 16.11° C | 64% | 1039.3 hPa | 0 mm | 0.89 m/s, 80° | 421 W/m² | - |
| 1777983329 | 15.56° C | 65% | 1039.3 hPa | 0 mm | 0.89 m/s, 233° | 172 W/m² | - |
| 1777983026 | 16.67° C | 64% | 1039.3 hPa | 0 mm | 1.34 m/s, 220° | 96 W/m² | - |
| 1777982722 | 16.11° C | 64% | 1039.2 hPa | 0 mm | 0.89 m/s, 26° | 278 W/m² | - |
| 1777982417 | 15.56° C | 65% | 1039.4 hPa | 0 mm | 0.89 m/s, 194° | 180 W/m² | - |
| 1777982113 | 15.56° C | 65% | 1039.3 hPa | 0 mm | 0.89 m/s, 198° | 272 W/m² | - |
| 1777981811 | 15.56° C | 65% | 1038.9 hPa | 0 mm | 1.34 m/s, 202° | 177 W/m² | - |
| 1777981507 | 15.56° C | 65% | 1038.9 hPa | 0 mm | 0.89 m/s, 195° | 265 W/m² | - |
| 1777981204 | 15.56° C | 66% | 1038.9 hPa | 0 mm | 1.34 m/s, 205° | 210 W/m² | - |
| 1777980900 | 15° C | 66% | 1039 hPa | 0 mm | 0.89 m/s, 204° | 181 W/m² | - |
| 1777980595 | 15° C | 67% | 1039 hPa | 0 mm | 1.34 m/s, 222° | 173 W/m² | - |
| 1777980293 | 15° C | 67% | 1038.9 hPa | 0 mm | 0 m/s | 71 W/m² | - |
| 1777979990 | 14.44° C | 68% | 1038.9 hPa | 0 mm | 0.89 m/s, 216° | 67 W/m² | - |
| 1777979684 | 14.44° C | 68% | 1038.8 hPa | 0 mm | 0.45 m/s, 197° | 66 W/m² | - |
| 1777979380 | 14.44° C | 68% | 1038.4 hPa | 0 mm | 0.45 m/s, 336° | 68 W/m² | - |
| 1777979077 | 14.44° C | 68% | 1038.7 hPa | 0 mm | 0.89 m/s, 203° | 68 W/m² | - |
| 1777978774 | 14.44° C | 68% | 1038.5 hPa | 0 mm | 0 m/s | 69 W/m² | - |
| 1777978465 | 13.89° C | 68% | 1038.4 hPa | 0 mm | 0.89 m/s, 136° | 70 W/m² | - |
| 1777978161 | 13.89° C | 68% | 1038.5 hPa | 0 mm | 1.34 m/s, 200° | 72 W/m² | - |
| 1777977859 | 13.89° C | 69% | 1038.4 hPa | 0 mm | 1.34 m/s, 202° | 69 W/m² | - |
| 1777977555 | 13.89° C | 68% | 1038.3 hPa | 0 mm | 0 m/s | 60 W/m² | - |
* Rain latest hour (hover to see other rain measurements)
** Current wind speed in m/s (hover to see current wind gust speed)